createdAt,value
2018-08-20T00:00:34.194Z,0
2018-08-20T00:01:34.907Z,0
2018-08-20T00:02:35.622Z,0
2018-08-20T00:03:36.336Z,0
2018-08-20T00:04:37.062Z,0
2018-08-20T00:05:37.794Z,0
2018-08-20T00:06:38.524Z,0
2018-08-20T00:07:39.251Z,0
2018-08-20T00:08:39.967Z,0
2018-08-20T00:09:40.680Z,0
2018-08-20T00:10:41.395Z,0
2018-08-20T00:11:42.111Z,0
2018-08-20T00:12:42.827Z,0
2018-08-20T00:13:43.555Z,0
2018-08-20T00:14:44.275Z,0
2018-08-20T00:15:44.997Z,0
2018-08-20T00:16:45.712Z,0
2018-08-20T00:17:46.428Z,0
2018-08-20T00:18:47.142Z,0
2018-08-20T00:19:47.858Z,0
2018-08-20T00:20:48.577Z,0
2018-08-20T00:21:49.293Z,0
2018-08-20T00:22:50.009Z,0
2018-08-20T00:23:50.725Z,0
2018-08-20T00:24:51.439Z,0
2018-08-20T00:25:52.155Z,0
2018-08-20T00:26:52.871Z,0
2018-08-20T00:27:53.585Z,0
2018-08-20T00:28:54.300Z,0
2018-08-20T00:29:55.015Z,0
2018-08-20T00:30:55.745Z,0
2018-08-20T00:31:56.460Z,0
2018-08-20T00:32:57.191Z,0
2018-08-20T00:33:57.903Z,0
2018-08-20T00:34:58.617Z,0
2018-08-20T00:35:59.346Z,0
2018-08-20T00:37:00.062Z,0
2018-08-20T00:38:00.792Z,0
2018-08-20T00:39:01.504Z,0
2018-08-20T00:40:02.218Z,0
2018-08-20T00:41:02.932Z,0
2018-08-20T00:42:03.645Z,0
2018-08-20T00:43:04.374Z,0
2018-08-20T00:44:05.102Z,0
2018-08-20T00:45:05.831Z,0
2018-08-20T00:46:06.546Z,0
2018-08-20T00:47:07.260Z,0
2018-08-20T00:48:07.987Z,0
2018-08-20T00:49:08.703Z,0
2018-08-20T00:50:09.419Z,0
2018-08-20T00:51:10.134Z,0
2018-08-20T00:52:10.849Z,0
2018-08-20T00:53:11.580Z,0
2018-08-20T00:54:12.305Z,0
2018-08-20T00:55:13.018Z,0
2018-08-20T00:56:13.746Z,0
2018-08-20T00:57:14.460Z,0
2018-08-20T00:58:15.175Z,0
2018-08-20T00:59:15.891Z,0
2018-08-20T01:00:16.603Z,0
2018-08-20T01:01:17.318Z,0
2018-08-20T01:02:18.035Z,0
2018-08-20T01:03:18.748Z,0
2018-08-20T01:04:19.479Z,0
2018-08-20T01:05:20.193Z,0
2018-08-20T01:06:20.907Z,0
2018-08-20T01:07:21.623Z,0
2018-08-20T01:08:22.337Z,0
2018-08-20T01:09:23.051Z,0
2018-08-20T01:10:23.765Z,0
2018-08-20T01:11:24.493Z,0
2018-08-20T01:12:25.220Z,0
2018-08-20T01:13:25.935Z,0
2018-08-20T01:14:26.649Z,0
2018-08-20T01:15:27.362Z,0
2018-08-20T01:16:28.076Z,0
2018-08-20T01:17:28.790Z,0
2018-08-20T01:18:29.505Z,0
2018-08-20T01:19:30.219Z,0
2018-08-20T01:20:30.934Z,0
2018-08-20T01:21:31.647Z,0
2018-08-20T01:22:32.361Z,0
2018-08-20T01:23:33.089Z,0
2018-08-20T01:24:33.817Z,0
2018-08-20T01:25:34.531Z,0
2018-08-20T01:26:35.244Z,0
2018-08-20T01:27:35.959Z,0
2018-08-20T01:28:36.685Z,0
2018-08-20T01:29:37.400Z,0
2018-08-20T01:30:38.115Z,0
2018-08-20T01:31:38.844Z,0
2018-08-20T01:32:39.578Z,0
2018-08-20T01:33:40.293Z,0
2018-08-20T01:34:41.011Z,0
2018-08-20T01:35:41.724Z,0
2018-08-20T01:36:42.437Z,0
2018-08-20T01:37:43.153Z,0
2018-08-20T01:38:43.883Z,0
2018-08-20T01:39:44.596Z,0
2018-08-20T01:40:45.312Z,0
2018-08-20T01:41:46.026Z,0
2018-08-20T01:42:46.740Z,0
2018-08-20T01:43:47.455Z,0
2018-08-20T01:44:48.170Z,0
2018-08-20T01:45:48.885Z,0
2018-08-20T01:46:49.616Z,0
2018-08-20T01:47:50.341Z,0
2018-08-20T01:48:51.069Z,0
2018-08-20T01:49:51.786Z,0
2018-08-20T01:50:52.516Z,0
2018-08-20T01:51:53.233Z,0
2018-08-20T01:52:53.962Z,0
2018-08-20T01:53:54.691Z,0
2018-08-20T01:54:55.419Z,0
2018-08-20T01:55:56.134Z,0
2018-08-20T01:56:56.850Z,0
2018-08-20T01:57:57.564Z,0
2018-08-20T01:58:58.278Z,0
2018-08-20T01:59:59.007Z,0
2018-08-20T02:00:59.733Z,0
2018-08-20T02:02:00.460Z,0
2018-08-20T02:03:01.174Z,0
2018-08-20T02:04:01.889Z,0
2018-08-20T02:05:02.604Z,0
2018-08-20T02:06:03.318Z,0
2018-08-20T02:07:04.031Z,0
2018-08-20T02:08:04.744Z,0
2018-08-20T02:09:05.460Z,0
2018-08-20T02:10:06.174Z,0
2018-08-20T02:11:06.890Z,0
2018-08-20T02:12:07.601Z,0
2018-08-20T02:13:08.315Z,0
2018-08-20T02:14:09.028Z,0
2018-08-20T02:15:09.744Z,0
2018-08-20T02:16:10.459Z,0
2018-08-20T02:17:11.174Z,0
2018-08-20T02:18:11.892Z,0
2018-08-20T02:19:12.617Z,0
2018-08-20T02:20:13.331Z,0
2018-08-20T02:21:14.045Z,0
2018-08-20T02:22:14.772Z,0
2018-08-20T02:23:15.487Z,0
2018-08-20T02:24:16.203Z,0
2018-08-20T02:25:16.917Z,0
2018-08-20T02:26:17.632Z,0
2018-08-20T02:27:18.362Z,0
2018-08-20T02:28:19.090Z,0
2018-08-20T02:29:19.819Z,0
2018-08-20T02:30:20.520Z,0
2018-08-20T02:31:21.244Z,0
2018-08-20T02:32:21.969Z,0
2018-08-20T02:33:22.681Z,0
2018-08-20T02:34:23.395Z,0
2018-08-20T02:35:24.109Z,0
2018-08-20T02:36:24.824Z,0
2018-08-20T02:37:25.539Z,0
2018-08-20T02:38:26.254Z,0
2018-08-20T02:39:26.970Z,0
2018-08-20T02:40:27.687Z,0
2018-08-20T02:41:28.404Z,0
2018-08-20T02:42:29.119Z,0
2018-08-20T02:43:29.835Z,0
2018-08-20T02:44:30.551Z,0
2018-08-20T02:45:31.265Z,0
2018-08-20T02:46:31.993Z,0
2018-08-20T02:47:32.708Z,0
2018-08-20T02:48:33.441Z,0
2018-08-20T02:49:34.163Z,0
2018-08-20T02:50:34.878Z,0
2018-08-20T02:51:35.606Z,0
2018-08-20T02:52:36.322Z,0
2018-08-20T02:53:37.035Z,0
2018-08-20T02:54:37.751Z,0
2018-08-20T02:55:38.466Z,0
2018-08-20T02:56:39.185Z,0
2018-08-20T02:57:39.898Z,0
2018-08-20T02:58:40.614Z,0
2018-08-20T02:59:41.327Z,0
2018-08-20T03:00:42.041Z,0
2018-08-20T03:01:42.755Z,0
2018-08-20T03:02:43.469Z,0
2018-08-20T03:03:44.235Z,0
2018-08-20T03:04:44.907Z,0
2018-08-20T03:05:45.622Z,0
2018-08-20T03:06:46.339Z,0
2018-08-20T03:07:47.055Z,0
2018-08-20T03:08:47.769Z,0
2018-08-20T03:09:48.499Z,0
2018-08-20T03:10:49.229Z,0
2018-08-20T03:11:49.947Z,0
2018-08-20T03:12:50.663Z,0
2018-08-20T03:13:51.378Z,0
2018-08-20T03:14:52.095Z,0
2018-08-20T03:15:52.810Z,0
2018-08-20T03:16:53.525Z,0
2018-08-20T03:17:54.239Z,0
2018-08-20T03:18:54.967Z,0
2018-08-20T03:19:55.696Z,0
2018-08-20T03:20:56.412Z,0
2018-08-20T03:21:57.130Z,0
2018-08-20T03:22:57.846Z,0
2018-08-20T03:23:58.572Z,0
2018-08-20T03:24:59.288Z,0
2018-08-20T03:26:00.003Z,0
2018-08-20T03:27:00.718Z,0
2018-08-20T03:28:01.449Z,0
2018-08-20T03:29:02.164Z,0
2018-08-20T03:30:02.879Z,0
2018-08-20T03:31:03.598Z,0
2018-08-20T03:32:04.324Z,0
2018-08-20T03:33:05.040Z,0
2018-08-20T03:34:05.767Z,0
2018-08-20T03:35:06.482Z,0
2018-08-20T03:36:07.212Z,0
2018-08-20T03:37:07.927Z,0
2018-08-20T03:38:08.661Z,0
2018-08-20T03:39:09.375Z,0
2018-08-20T03:40:10.089Z,0
2018-08-20T03:41:10.802Z,0
2018-08-20T03:42:11.519Z,0
2018-08-20T03:43:12.236Z,0
2018-08-20T03:44:12.951Z,0
2018-08-20T03:45:13.678Z,0
2018-08-20T03:46:14.408Z,0
2018-08-20T03:47:15.136Z,0
2018-08-20T03:48:15.851Z,0
2018-08-20T03:49:16.565Z,0
2018-08-20T03:50:17.295Z,0
2018-08-20T03:51:18.009Z,0
2018-08-20T03:52:18.737Z,0
2018-08-20T03:53:19.468Z,0
2018-08-20T03:54:20.193Z,0
2018-08-20T03:55:20.910Z,0
2018-08-20T03:56:21.665Z,0
2018-08-20T03:57:22.339Z,4
2018-08-20T03:58:23.054Z,4
2018-08-20T03:59:23.769Z,0
2018-08-20T04:00:24.484Z,0
2018-08-20T04:01:25.198Z,4
2018-08-20T04:02:25.916Z,4
2018-08-20T04:03:26.629Z,4
2018-08-20T04:04:27.350Z,4
2018-08-20T04:05:28.058Z,0
2018-08-20T04:06:28.772Z,8
2018-08-20T04:07:29.487Z,4
2018-08-20T04:08:30.216Z,8
2018-08-20T04:09:30.933Z,8
2018-08-20T04:10:31.648Z,12
2018-08-20T04:11:32.364Z,16
2018-08-20T04:12:33.084Z,12
2018-08-20T04:13:33.795Z,12
2018-08-20T04:14:34.523Z,12
2018-08-20T04:15:35.237Z,20
2018-08-20T04:16:35.952Z,20
2018-08-20T04:17:36.667Z,20
2018-08-20T04:18:37.385Z,20
2018-08-20T04:19:38.150Z,24
2018-08-20T04:20:38.869Z,28
2018-08-20T04:21:39.583Z,28
2018-08-20T04:22:40.299Z,28
2018-08-20T04:23:41.014Z,36
2018-08-20T04:24:41.729Z,40
2018-08-20T04:25:42.445Z,44
2018-08-20T04:26:43.160Z,56
2018-08-20T04:27:43.875Z,60
2018-08-20T04:28:44.590Z,64
2018-08-20T04:29:45.309Z,68
2018-08-20T04:30:46.135Z,76
2018-08-20T04:31:46.748Z,84
2018-08-20T04:32:47.467Z,96
2018-08-20T04:33:48.184Z,112
2018-08-20T04:34:48.902Z,124
2018-08-20T04:35:49.619Z,132
2018-08-20T04:36:50.337Z,124
2018-08-20T04:37:51.067Z,124
2018-08-20T04:38:51.785Z,136
2018-08-20T04:39:52.502Z,148
2018-08-20T04:40:53.236Z,168
2018-08-20T04:41:53.964Z,192
2018-08-20T04:42:54.699Z,200
2018-08-20T04:43:55.427Z,200
2018-08-20T04:44:56.145Z,204
2018-08-20T04:45:56.861Z,220
2018-08-20T04:46:57.577Z,236
2018-08-20T04:47:58.296Z,252
2018-08-20T04:48:59.014Z,260
2018-08-20T04:49:59.832Z,252
2018-08-20T04:51:00.645Z,256
2018-08-20T04:52:01.176Z,256
2018-08-20T04:53:01.897Z,260
2018-08-20T04:54:02.624Z,272
2018-08-20T04:55:03.342Z,280
2018-08-20T04:56:04.075Z,300
2018-08-20T04:57:04.793Z,332
2018-08-20T04:58:05.528Z,364
2018-08-20T04:59:06.249Z,392
2018-08-20T05:00:06.978Z,428
2018-08-20T05:01:07.695Z,484
2018-08-20T05:02:08.414Z,540
2018-08-20T05:03:09.146Z,596
2018-08-20T05:04:09.889Z,648
2018-08-20T05:05:10.596Z,664
2018-08-20T05:06:11.329Z,668
2018-08-20T05:07:12.060Z,680
2018-08-20T05:08:12.795Z,700
2018-08-20T05:09:13.513Z,756
2018-08-20T05:10:14.231Z,780
2018-08-20T05:11:14.948Z,752
2018-08-20T05:12:15.666Z,732
2018-08-20T05:13:16.387Z,744
2018-08-20T05:14:17.104Z,792
2018-08-20T05:15:17.821Z,836
2018-08-20T05:16:18.540Z,852
2018-08-20T05:17:19.261Z,828
2018-08-20T05:18:19.991Z,792
2018-08-20T05:19:20.712Z,832
2018-08-20T05:20:21.428Z,876
2018-08-20T05:21:22.161Z,908
2018-08-20T05:22:22.880Z,956
2018-08-20T05:23:23.600Z,968
2018-08-20T05:24:24.319Z,964
2018-08-20T05:25:25.056Z,952
2018-08-20T05:26:25.773Z,960
2018-08-20T05:27:26.502Z,968
2018-08-20T05:28:27.221Z,956
2018-08-20T05:29:28.039Z,924
2018-08-20T05:30:28.659Z,916
2018-08-20T05:31:29.378Z,892
2018-08-20T05:32:30.099Z,848
2018-08-20T05:33:30.816Z,808
2018-08-20T05:34:31.549Z,832
2018-08-20T05:35:32.265Z,900
2018-08-20T05:36:32.987Z,972
2018-08-20T05:37:33.718Z,1036
2018-08-20T05:38:34.439Z,1056
2018-08-20T05:39:35.158Z,1048
2018-08-20T05:40:35.875Z,1068
2018-08-20T05:41:36.597Z,1144
2018-08-20T05:42:37.317Z,1248
2018-08-20T05:43:38.053Z,1360
2018-08-20T05:44:38.796Z,1488
2018-08-20T05:45:39.517Z,1544
2018-08-20T05:46:40.240Z,1532
2018-08-20T05:47:40.972Z,1584
2018-08-20T05:48:41.690Z,1604
2018-08-20T05:49:42.420Z,1596
2018-08-20T05:50:43.140Z,1616
2018-08-20T05:51:43.861Z,1684
2018-08-20T05:52:44.583Z,1740
2018-08-20T05:53:45.303Z,1792
2018-08-20T05:54:46.022Z,1884
2018-08-20T05:55:46.742Z,1940
2018-08-20T05:56:47.461Z,1968
2018-08-20T05:57:48.179Z,2020
2018-08-20T05:58:48.899Z,2068
2018-08-20T05:59:49.620Z,2096
2018-08-20T06:00:50.340Z,2132
2018-08-20T06:01:51.087Z,2180
2018-08-20T06:02:51.779Z,2228
2018-08-20T06:03:52.499Z,2268
2018-08-20T06:04:53.219Z,2284
2018-08-20T06:05:53.942Z,2284
2018-08-20T06:06:54.678Z,2284
2018-08-20T06:07:55.486Z,2284
2018-08-20T06:08:56.127Z,2320
2018-08-20T06:09:56.860Z,2356
2018-08-20T06:10:57.582Z,2420
2018-08-20T06:11:58.315Z,2480
2018-08-20T06:12:59.035Z,2508
2018-08-20T06:13:59.755Z,2524
2018-08-20T06:15:00.476Z,2612
2018-08-20T06:16:01.202Z,2708
2018-08-20T06:17:01.932Z,2668
2018-08-20T06:18:02.665Z,2580
2018-08-20T06:19:03.398Z,2608
2018-08-20T06:20:04.117Z,2552
2018-08-20T06:21:04.849Z,2392
2018-08-20T06:22:05.584Z,2272
2018-08-20T06:23:06.302Z,2332
2018-08-20T06:24:07.021Z,2552
2018-08-20T06:25:07.846Z,2456
2018-08-20T06:26:08.469Z,2176
2018-08-20T06:27:09.192Z,2168
2018-08-20T06:28:09.912Z,2360
2018-08-20T06:29:10.631Z,2308
2018-08-20T06:30:11.364Z,2388
2018-08-20T06:31:12.098Z,2348
2018-08-20T06:32:12.817Z,2472
2018-08-20T06:33:13.536Z,2776
2018-08-20T06:34:14.257Z,3140
2018-08-20T06:35:14.976Z,2888
2018-08-20T06:36:15.710Z,2796
2018-08-20T06:37:16.431Z,3060
2018-08-20T06:38:17.156Z,3348
2018-08-20T06:39:17.889Z,3140
2018-08-20T06:40:18.611Z,3040
2018-08-20T06:41:19.329Z,3000
2018-08-20T06:42:20.063Z,3048
2018-08-20T06:43:20.782Z,3416
2018-08-20T06:44:21.504Z,3784
2018-08-20T06:45:22.230Z,3880
2018-08-20T06:46:22.959Z,4012
2018-08-20T06:47:23.681Z,4024
2018-08-20T06:48:24.413Z,3872
2018-08-20T06:49:25.157Z,3860
2018-08-20T06:50:25.857Z,3856
2018-08-20T06:51:26.579Z,3864
2018-08-20T06:52:27.301Z,4100
2018-08-20T06:53:28.024Z,4356
2018-08-20T06:54:28.746Z,4648
2018-08-20T06:55:29.464Z,4788
2018-08-20T06:56:30.187Z,4880
2018-08-20T06:57:30.908Z,4812
2018-08-20T06:58:31.629Z,4640
2018-08-20T06:59:32.351Z,4548
2018-08-20T07:00:33.085Z,4880
2018-08-20T07:01:33.825Z,5160
2018-08-20T07:02:34.563Z,4728
2018-08-20T07:03:35.300Z,4588
2018-08-20T07:04:36.021Z,4636
2018-08-20T07:05:36.743Z,4584
2018-08-20T07:06:37.464Z,4936
2018-08-20T07:07:38.188Z,5164
2018-08-20T07:08:38.921Z,5136
2018-08-20T07:09:39.643Z,5160
2018-08-20T07:10:40.363Z,5264
2018-08-20T07:11:41.135Z,5332
2018-08-20T07:12:41.823Z,5368
2018-08-20T07:13:42.543Z,5384
2018-08-20T07:14:43.262Z,5452
2018-08-20T07:15:43.999Z,5472
2018-08-20T07:16:44.718Z,5380
2018-08-20T07:17:45.442Z,5308
2018-08-20T07:18:46.164Z,5232
2018-08-20T07:19:46.885Z,4820
2018-08-20T07:20:47.609Z,4496
2018-08-20T07:21:48.330Z,4480
2018-08-20T07:22:49.066Z,4444
2018-08-20T07:23:49.799Z,4708
2018-08-20T07:24:50.503Z,5196
2018-08-20T07:25:51.225Z,5312
2018-08-20T07:26:51.947Z,5300
2018-08-20T07:27:52.668Z,5684
2018-08-20T07:28:53.390Z,6072
2018-08-20T07:29:54.115Z,6612
2018-08-20T07:30:54.831Z,7116
2018-08-20T07:31:55.555Z,7320
2018-08-20T07:32:56.335Z,7468
2018-08-20T07:33:57.026Z,7456
2018-08-20T07:34:57.761Z,7140
2018-08-20T07:35:58.485Z,6552
2018-08-20T07:36:59.221Z,6720
2018-08-20T07:37:59.942Z,7252
2018-08-20T07:39:00.677Z,7708
2018-08-20T07:40:01.405Z,7572
2018-08-20T07:41:02.133Z,8136
2018-08-20T07:42:02.858Z,8260
2018-08-20T07:43:03.582Z,8340
2018-08-20T07:44:04.306Z,8444
2018-08-20T07:45:05.029Z,7600
2018-08-20T07:46:05.753Z,6796
2018-08-20T07:47:06.474Z,6400
2018-08-20T07:48:07.196Z,6388
2018-08-20T07:49:07.933Z,6548
2018-08-20T07:50:08.668Z,6392
2018-08-20T07:51:09.391Z,6304
2018-08-20T07:52:10.119Z,6276
2018-08-20T07:53:10.851Z,6376
2018-08-20T07:54:11.574Z,6244
2018-08-20T07:55:12.295Z,6232
2018-08-20T07:56:13.019Z,6088
2018-08-20T07:57:13.742Z,5940
2018-08-20T07:58:14.464Z,6520
2018-08-20T07:59:15.188Z,7700
2018-08-20T08:00:15.911Z,8272
2018-08-20T08:01:16.633Z,7928
2018-08-20T08:02:17.359Z,8056
2018-08-20T08:03:18.081Z,8000
2018-08-20T08:04:18.805Z,8188
2018-08-20T08:05:19.538Z,8912
2018-08-20T08:06:20.263Z,10152
2018-08-20T08:07:20.989Z,10628
2018-08-20T08:08:21.722Z,10472
2018-08-20T08:09:22.447Z,11416
2018-08-20T08:10:23.170Z,12456
2018-08-20T08:11:23.894Z,12836
2018-08-20T08:12:24.620Z,11824
2018-08-20T08:13:25.355Z,10984
2018-08-20T08:14:26.089Z,10348
2018-08-20T08:15:26.813Z,9532
2018-08-20T08:16:27.549Z,9360
2018-08-20T08:17:28.273Z,9396
2018-08-20T08:18:29.007Z,8992
2018-08-20T08:19:29.776Z,8668
2018-08-20T08:20:30.500Z,8568
2018-08-20T08:21:31.224Z,7960
2018-08-20T08:22:31.946Z,6432
2018-08-20T08:23:32.685Z,4940
2018-08-20T08:24:33.407Z,4296
2018-08-20T08:25:34.141Z,4216
2018-08-20T08:26:34.919Z,5052
2018-08-20T08:27:35.587Z,6388
2018-08-20T08:28:36.309Z,7284
2018-08-20T08:29:37.045Z,7752
2018-08-20T08:30:37.768Z,7692
2018-08-20T08:31:38.490Z,6788
2018-08-20T08:32:39.211Z,6560
2018-08-20T08:33:39.936Z,6540
2018-08-20T08:34:40.656Z,6352
2018-08-20T08:35:41.391Z,6388
2018-08-20T08:36:42.113Z,6360
2018-08-20T08:37:42.838Z,6476
2018-08-20T08:38:43.561Z,6836
2018-08-20T08:39:44.296Z,7140
2018-08-20T08:40:45.018Z,7156
2018-08-20T08:41:45.740Z,6996
2018-08-20T08:42:46.475Z,6364
2018-08-20T08:43:47.199Z,5860
2018-08-20T08:44:47.921Z,6476
2018-08-20T08:45:48.645Z,7612
2018-08-20T08:46:49.414Z,9048
2018-08-20T08:47:50.089Z,9876
2018-08-20T08:48:50.811Z,9772
2018-08-20T08:49:51.630Z,9632
2018-08-20T08:50:52.258Z,9992
2018-08-20T08:51:52.984Z,10524
2018-08-20T08:52:53.707Z,10684
2018-08-20T08:53:54.432Z,11892
2018-08-20T08:54:55.155Z,12748
2018-08-20T08:55:55.881Z,13320
2018-08-20T08:56:56.608Z,14672
2018-08-20T08:57:57.344Z,14952
2018-08-20T08:58:58.068Z,14576
2018-08-20T08:59:58.795Z,13424
2018-08-20T09:00:59.530Z,13640
2018-08-20T09:02:00.255Z,15084
2018-08-20T09:03:00.981Z,19680
2018-08-20T09:04:01.707Z,23424
2018-08-20T09:05:02.431Z,17376
2018-08-20T09:06:03.171Z,18144
2018-08-20T09:07:03.911Z,18528
2018-08-20T09:08:04.640Z,19552
2018-08-20T09:09:05.366Z,16276
2018-08-20T09:10:06.109Z,13176
2018-08-20T09:11:06.833Z,11024
2018-08-20T09:12:07.558Z,10436
2018-08-20T09:13:08.289Z,10072
2018-08-20T09:14:09.015Z,9668
2018-08-20T09:15:09.741Z,8812
2018-08-20T09:16:10.465Z,7948
2018-08-20T09:17:11.192Z,7624
2018-08-20T09:18:11.917Z,7628
2018-08-20T09:19:12.645Z,8348
2018-08-20T09:20:13.369Z,10312
2018-08-20T09:21:14.106Z,14184
2018-08-20T09:22:14.834Z,20832
2018-08-20T09:23:15.558Z,21920
2018-08-20T09:24:16.288Z,22784
2018-08-20T09:25:17.016Z,11440
2018-08-20T09:26:17.743Z,10412
2018-08-20T09:27:18.470Z,11156
2018-08-20T09:28:19.198Z,12168
2018-08-20T09:29:19.924Z,12624
2018-08-20T09:30:20.649Z,12360
2018-08-20T09:31:21.378Z,13552
2018-08-20T09:32:22.202Z,17728
2018-08-20T09:33:22.844Z,23232
2018-08-20T09:34:23.584Z,25600
2018-08-20T09:35:24.310Z,29824
2018-08-20T09:36:25.063Z,23104
2018-08-20T09:37:25.796Z,23488
2018-08-20T09:38:26.559Z,28672
2018-08-20T09:39:27.253Z,25696
2018-08-20T09:40:27.996Z,21312
2018-08-20T09:41:28.730Z,25184
2018-08-20T09:42:29.475Z,23648
2018-08-20T09:43:30.203Z,19584
2018-08-20T09:44:30.934Z,25792
2018-08-20T09:45:31.664Z,30144
2018-08-20T09:46:32.395Z,21568
2018-08-20T09:47:33.129Z,16896
2018-08-20T09:48:33.871Z,12400
2018-08-20T09:49:34.601Z,9180
2018-08-20T09:50:35.333Z,7552
2018-08-20T09:51:36.062Z,6944
2018-08-20T09:52:36.792Z,6260
2018-08-20T09:53:37.537Z,5676
2018-08-20T09:54:38.264Z,5420
2018-08-20T09:55:38.996Z,5252
2018-08-20T09:56:39.737Z,5108
2018-08-20T09:57:40.463Z,4932
2018-08-20T09:58:41.190Z,4756
2018-08-20T09:59:41.919Z,4588
2018-08-20T10:00:42.646Z,4312
2018-08-20T10:01:43.376Z,4172
2018-08-20T10:02:44.104Z,4088
2018-08-20T10:03:44.829Z,3992
2018-08-20T10:04:45.557Z,3800
2018-08-20T10:05:46.281Z,3544
2018-08-20T10:06:47.016Z,3364
2018-08-20T10:07:47.739Z,3104
2018-08-20T10:08:48.463Z,2996
2018-08-20T10:09:49.199Z,3164
2018-08-20T10:10:49.919Z,3236
2018-08-20T10:11:50.655Z,3148
2018-08-20T10:12:51.390Z,3464
2018-08-20T10:13:52.116Z,4056
2018-08-20T10:14:52.852Z,4268
2018-08-20T10:15:53.576Z,4100
2018-08-20T10:16:54.313Z,3812
2018-08-20T10:17:55.035Z,3488
2018-08-20T10:18:55.760Z,3144
2018-08-20T10:19:56.491Z,2860
2018-08-20T10:20:57.211Z,2632
2018-08-20T10:21:57.934Z,2460
2018-08-20T10:22:58.665Z,2356
2018-08-20T10:23:59.377Z,2104
2018-08-20T10:25:00.111Z,1808
2018-08-20T10:26:00.831Z,1724
2018-08-20T10:27:01.555Z,1780
2018-08-20T10:28:02.292Z,1888
2018-08-20T10:29:03.011Z,1948
2018-08-20T10:30:03.730Z,1900
2018-08-20T10:31:04.449Z,1848
2018-08-20T10:32:05.249Z,1868
2018-08-20T10:33:05.893Z,1920
2018-08-20T10:34:06.615Z,1996
2018-08-20T10:35:07.338Z,2064
2018-08-20T10:36:08.056Z,1988
2018-08-20T10:37:08.776Z,1892
2018-08-20T10:38:09.514Z,1936
2018-08-20T10:39:10.246Z,2144
2018-08-20T10:40:10.984Z,2476
2018-08-20T10:41:11.704Z,2808
2018-08-20T10:42:12.424Z,3064
2018-08-20T10:43:13.145Z,3284
2018-08-20T10:44:13.866Z,3456
2018-08-20T10:45:14.588Z,3588
2018-08-20T10:46:15.323Z,3640
2018-08-20T10:47:16.057Z,3556
2018-08-20T10:48:16.777Z,3332
2018-08-20T10:49:17.513Z,3088
2018-08-20T10:50:18.233Z,2900
2018-08-20T10:51:18.954Z,2772
2018-08-20T10:52:19.675Z,2724
2018-08-20T10:53:20.410Z,2756
2018-08-20T10:54:21.142Z,2892
2018-08-20T10:55:21.881Z,3124
2018-08-20T10:56:22.636Z,3448
2018-08-20T10:57:23.335Z,3880
2018-08-20T10:58:24.059Z,4396
2018-08-20T10:59:24.782Z,4932
2018-08-20T11:00:25.515Z,5360
2018-08-20T11:01:26.236Z,5736
2018-08-20T11:02:26.958Z,6104
2018-08-20T11:03:27.681Z,6440
2018-08-20T11:04:28.404Z,6764
2018-08-20T11:05:29.125Z,7112
2018-08-20T11:06:29.860Z,7496
2018-08-20T11:07:30.583Z,7876
2018-08-20T11:08:31.305Z,8200
2018-08-20T11:09:32.029Z,8444
2018-08-20T11:10:32.765Z,8592
2018-08-20T11:11:33.504Z,8720
2018-08-20T11:12:34.238Z,8876
2018-08-20T11:13:34.963Z,9096
2018-08-20T11:14:35.686Z,9256
2018-08-20T11:15:36.408Z,9284
2018-08-20T11:16:37.130Z,9080
2018-08-20T11:17:37.852Z,8648
2018-08-20T11:18:38.590Z,8060
2018-08-20T11:19:39.298Z,7592
2018-08-20T11:20:40.021Z,7372
2018-08-20T11:21:40.756Z,7244
2018-08-20T11:22:41.476Z,7152
2018-08-20T11:23:42.216Z,7020
2018-08-20T11:24:42.938Z,6892
2018-08-20T11:25:43.664Z,6828
2018-08-20T11:26:44.386Z,6816
2018-08-20T11:27:45.109Z,7036
2018-08-20T11:28:45.830Z,7444
2018-08-20T11:29:46.552Z,7900
2018-08-20T11:30:47.274Z,8180
2018-08-20T11:31:47.996Z,8364
2018-08-20T11:32:48.720Z,8600
2018-08-20T11:33:49.442Z,8956
2018-08-20T11:34:50.161Z,9468
2018-08-20T11:35:50.885Z,10000
2018-08-20T11:36:51.608Z,10432
2018-08-20T11:37:52.343Z,10588
2018-08-20T11:38:53.072Z,10212
2018-08-20T11:39:53.792Z,9392
2018-08-20T11:40:54.514Z,8704
2018-08-20T11:41:55.234Z,8176
2018-08-20T11:42:55.971Z,7496
2018-08-20T11:43:56.708Z,6756
2018-08-20T11:44:57.441Z,6312
2018-08-20T11:45:58.168Z,6164
2018-08-20T11:46:58.882Z,6108
2018-08-20T11:47:59.603Z,6120
2018-08-20T11:49:00.330Z,6152
2018-08-20T11:50:01.046Z,6188
2018-08-20T11:51:01.766Z,6208
2018-08-20T11:52:02.500Z,6192
2018-08-20T11:53:03.224Z,6144
2018-08-20T11:54:03.958Z,6140
2018-08-20T11:55:04.687Z,6440
2018-08-20T11:56:05.412Z,7124
2018-08-20T11:57:06.131Z,8108
2018-08-20T11:58:06.854Z,9408
2018-08-20T11:59:07.688Z,10500
2018-08-20T12:00:08.318Z,11232
2018-08-20T12:01:09.040Z,11652
2018-08-20T12:02:09.763Z,12020
2018-08-20T12:03:10.501Z,12596
2018-08-20T12:04:11.224Z,14480
2018-08-20T12:05:11.948Z,14072
2018-08-20T12:06:12.669Z,14872
2018-08-20T12:07:13.398Z,14796
2018-08-20T12:08:14.118Z,15028
2018-08-20T12:09:14.844Z,15984
2018-08-20T12:10:15.564Z,15552
2018-08-20T12:11:16.290Z,15900
2018-08-20T12:12:17.016Z,15956
2018-08-20T12:13:17.747Z,16928
2018-08-20T12:14:18.480Z,19872
2018-08-20T12:15:19.266Z,20000
2018-08-20T12:16:19.943Z,20384
2018-08-20T12:17:20.730Z,21952
2018-08-20T12:18:21.404Z,26496
2018-08-20T12:19:22.129Z,28160
2018-08-20T12:20:22.871Z,59904
2018-08-20T12:21:23.603Z,74848
2018-08-20T12:22:24.360Z,47392
2018-08-20T12:23:25.086Z,82272
2018-08-20T12:24:25.820Z,34528
2018-08-20T12:25:26.561Z,36320
2018-08-20T12:26:27.294Z,43040
2018-08-20T12:27:28.034Z,60704
2018-08-20T12:28:28.765Z,44320
2018-08-20T12:29:29.497Z,31168
2018-08-20T12:30:30.237Z,29952
2018-08-20T12:31:30.979Z,33088
2018-08-20T12:32:31.722Z,26144
2018-08-20T12:33:32.450Z,27360
2018-08-20T12:34:33.181Z,30688
2018-08-20T12:35:33.927Z,41376
2018-08-20T12:36:34.657Z,50656
2018-08-20T12:37:35.387Z,76384
2018-08-20T12:38:36.120Z,38592
2018-08-20T12:39:36.853Z,57248
2018-08-20T12:40:37.583Z,32768
2018-08-20T12:41:38.327Z,58336
2018-08-20T12:42:39.059Z,30400
2018-08-20T12:43:39.791Z,30304
2018-08-20T12:44:40.519Z,36352
2018-08-20T12:45:41.250Z,29728
2018-08-20T12:46:41.981Z,28384
2018-08-20T12:47:42.712Z,28320
2018-08-20T12:48:43.441Z,28768
2018-08-20T12:49:44.174Z,56608
2018-08-20T12:50:44.905Z,29440
2018-08-20T12:51:45.635Z,31424
2018-08-20T12:52:46.366Z,34848
2018-08-20T12:53:47.116Z,33792
2018-08-20T12:54:47.845Z,40096
2018-08-20T12:55:48.577Z,37600
2018-08-20T12:56:49.310Z,32704
2018-08-20T12:57:50.052Z,28384
2018-08-20T12:58:50.783Z,22720
2018-08-20T12:59:51.512Z,21024
2018-08-20T13:00:52.296Z,30016
2018-08-20T13:01:52.983Z,29088
2018-08-20T13:02:53.720Z,25792
2018-08-20T13:03:54.451Z,29888
2018-08-20T13:04:55.179Z,21696
2018-08-20T13:05:55.910Z,32032
2018-08-20T13:06:56.641Z,29280
2018-08-20T13:07:57.374Z,17984
2018-08-20T13:08:58.153Z,18304
2018-08-20T13:09:58.839Z,21504
2018-08-20T13:10:59.570Z,45440
2018-08-20T13:12:00.300Z,29216
2018-08-20T13:13:01.046Z,25536
2018-08-20T13:14:01.778Z,18784
2018-08-20T13:15:02.506Z,24384
2018-08-20T13:16:03.368Z,19360
2018-08-20T13:17:03.968Z,22432
2018-08-20T13:18:04.711Z,30048
2018-08-20T13:19:05.442Z,25696
2018-08-20T13:20:06.173Z,26496
2018-08-20T13:21:06.903Z,22880
2018-08-20T13:22:07.638Z,27424
2018-08-20T13:23:08.365Z,27456
2018-08-20T13:24:09.110Z,24640
2018-08-20T13:25:09.838Z,21088
2018-08-20T13:26:10.582Z,19584
2018-08-20T13:27:11.313Z,26880
2018-08-20T13:28:12.044Z,22496
2018-08-20T13:29:12.773Z,26368
2018-08-20T13:30:13.504Z,20160
2018-08-20T13:31:14.233Z,20320
2018-08-20T13:32:14.964Z,18240
2018-08-20T13:33:15.693Z,17888
2018-08-20T13:34:16.424Z,16736
2018-08-20T13:35:17.155Z,15296
2018-08-20T13:36:17.885Z,14736
2018-08-20T13:37:18.653Z,14128
2018-08-20T13:38:19.358Z,12592
2018-08-20T13:39:20.087Z,12456
2018-08-20T13:40:20.817Z,14580
2018-08-20T13:41:21.544Z,17760
2018-08-20T13:42:22.288Z,17888
2018-08-20T13:43:23.019Z,18560
2018-08-20T13:44:23.748Z,22144
2018-08-20T13:45:24.475Z,15816
2018-08-20T13:46:25.204Z,15580
2018-08-20T13:47:25.948Z,15408
2018-08-20T13:48:26.678Z,15444
2018-08-20T13:49:27.408Z,14828
2018-08-20T13:50:28.133Z,13692